sensor_id;sensor_type;location;lat;lon;timestamp;P1;durP1;ratioP1;P2;durP2;ratioP2
57401;SDS011;43226;51.110;6.998;2023-04-01T00:00:29;1.10;;;0.83;;
57401;SDS011;43226;51.110;6.998;2023-04-01T00:02:54;4.40;;;0.90;;
57401;SDS011;43226;51.110;6.998;2023-04-01T00:05:20;2.43;;;0.90;;
57401;SDS011;43226;51.110;6.998;2023-04-01T00:07:45;5.73;;;0.90;;
57401;SDS011;43226;51.110;6.998;2023-04-01T00:10:11;2.70;;;0.83;;
57401;SDS011;43226;51.110;6.998;2023-04-01T00:12:37;2.13;;;0.80;;
57401;SDS011;43226;51.110;6.998;2023-04-01T00:15:03;5.03;;;1.03;;
57401;SDS011;43226;51.110;6.998;2023-04-01T00:17:28;1.47;;;0.70;;
57401;SDS011;43226;51.110;6.998;2023-04-01T00:19:56;1.33;;;0.80;;
57401;SDS011;43226;51.110;6.998;2023-04-01T00:22:22;1.10;;;0.70;;
57401;SDS011;43226;51.110;6.998;2023-04-01T00:24:47;1.70;;;0.80;;
57401;SDS011;43226;51.110;6.998;2023-04-01T00:27:12;2.00;;;0.70;;
57401;SDS011;43226;51.110;6.998;2023-04-01T00:29:37;0.60;;;0.60;;
57401;SDS011;43226;51.110;6.998;2023-04-01T00:32:03;1.37;;;0.80;;
57401;SDS011;43226;51.110;6.998;2023-04-01T00:34:28;2.40;;;0.70;;
57401;SDS011;43226;51.110;6.998;2023-04-01T00:36:53;1.67;;;0.80;;
57401;SDS011;43226;51.110;6.998;2023-04-01T00:39:19;2.43;;;0.80;;
57401;SDS011;43226;51.110;6.998;2023-04-01T00:41:45;1.07;;;0.97;;
57401;SDS011;43226;51.110;6.998;2023-04-01T00:44:11;2.27;;;0.80;;
57401;SDS011;43226;51.110;6.998;2023-04-01T00:46:38;2.40;;;0.80;;
57401;SDS011;43226;51.110;6.998;2023-04-01T00:49:04;3.90;;;0.70;;
57401;SDS011;43226;51.110;6.998;2023-04-01T00:51:29;4.00;;;0.90;;
57401;SDS011;43226;51.110;6.998;2023-04-01T00:53:55;2.70;;;0.90;;
57401;SDS011;43226;51.110;6.998;2023-04-01T00:56:22;1.27;;;0.93;;
57401;SDS011;43226;51.110;6.998;2023-04-01T00:58:52;0.60;;;0.60;;
57401;SDS011;43226;51.110;6.998;2023-04-01T01:01:21;0.60;;;0.60;;
57401;SDS011;43226;51.110;6.998;2023-04-01T01:03:47;0.80;;;0.70;;
57401;SDS011;43226;51.110;6.998;2023-04-01T01:09:10;5.20;;;0.80;;
57401;SDS011;43226;51.110;6.998;2023-04-01T01:11:48;0.83;;;0.80;;
57401;SDS011;43226;51.110;6.998;2023-04-01T01:16:43;6.18;;;1.00;;
57401;SDS011;43226;51.110;6.998;2023-04-01T01:19:28;1.47;;;0.60;;
57401;SDS011;43226;51.110;6.998;2023-04-01T01:22:02;0.90;;;0.60;;
57401;SDS011;43226;51.110;6.998;2023-04-01T01:27:16;0.67;;;0.60;;
57401;SDS011;43226;51.110;6.998;2023-04-01T01:37:10;1.10;;;0.60;;
57401;SDS011;43226;51.110;6.998;2023-04-01T01:39:36;0.63;;;0.63;;
57401;SDS011;43226;51.110;6.998;2023-04-01T01:42:06;0.90;;;0.80;;
57401;SDS011;43226;51.110;6.998;2023-04-01T01:44:33;1.83;;;0.80;;
57401;SDS011;43226;51.110;6.998;2023-04-01T01:46:59;0.70;;;0.70;;
57401;SDS011;43226;51.110;6.998;2023-04-01T01:49:25;0.87;;;0.60;;
57401;SDS011;43226;51.110;6.998;2023-04-01T01:51:51;3.40;;;0.90;;
57401;SDS011;43226;51.110;6.998;2023-04-01T01:54:16;0.70;;;0.70;;
57401;SDS011;43226;51.110;6.998;2023-04-01T01:56:43;4.50;;;0.80;;
57401;SDS011;43226;51.110;6.998;2023-04-01T01:59:09;1.00;;;0.70;;
57401;SDS011;43226;51.110;6.998;2023-04-01T02:01:37;1.53;;;1.00;;
57401;SDS011;43226;51.110;6.998;2023-04-01T02:04:04;0.53;;;0.53;;
57401;SDS011;43226;51.110;6.998;2023-04-01T02:06:30;0.87;;;0.70;;
57401;SDS011;43226;51.110;6.998;2023-04-01T02:08:59;0.70;;;0.70;;
57401;SDS011;43226;51.110;6.998;2023-04-01T02:11:27;0.97;;;0.70;;
57401;SDS011;43226;51.110;6.998;2023-04-01T02:13:55;1.87;;;0.60;;
57401;SDS011;43226;51.110;6.998;2023-04-01T02:16:32;0.87;;;0.67;;
57401;SDS011;43226;51.110;6.998;2023-04-01T02:18:59;1.10;;;0.70;;
57401;SDS011;43226;51.110;6.998;2023-04-01T02:21:26;0.90;;;0.60;;
57401;SDS011;43226;51.110;6.998;2023-04-01T02:23:52;0.63;;;0.63;;
57401;SDS011;43226;51.110;6.998;2023-04-01T02:26:18;0.80;;;0.60;;
57401;SDS011;43226;51.110;6.998;2023-04-01T02:28:43;2.10;;;0.70;;
57401;SDS011;43226;51.110;6.998;2023-04-01T02:31:11;4.67;;;0.70;;
57401;SDS011;43226;51.110;6.998;2023-04-01T02:33:38;1.83;;;0.63;;
57401;SDS011;43226;51.110;6.998;2023-04-01T02:36:03;2.67;;;0.90;;
57401;SDS011;43226;51.110;6.998;2023-04-01T02:38:29;0.63;;;0.63;;
57401;SDS011;43226;51.110;6.998;2023-04-01T02:40:59;0.50;;;0.50;;
57401;SDS011;43226;51.110;6.998;2023-04-01T02:43:24;0.73;;;0.60;;
57401;SDS011;43226;51.110;6.998;2023-04-01T02:45:49;1.10;;;0.67;;
57401;SDS011;43226;51.110;6.998;2023-04-01T02:48:15;1.37;;;0.70;;
57401;SDS011;43226;51.110;6.998;2023-04-01T02:50:40;0.60;;;0.60;;
57401;SDS011;43226;51.110;6.998;2023-04-01T02:53:05;0.83;;;0.73;;
57401;SDS011;43226;51.110;6.998;2023-04-01T02:55:31;5.23;;;0.80;;
57401;SDS011;43226;51.110;6.998;2023-04-01T02:57:56;1.90;;;0.70;;
57401;SDS011;43226;51.110;6.998;2023-04-01T03:00:22;0.70;;;0.70;;
57401;SDS011;43226;51.110;6.998;2023-04-01T03:02:47;5.40;;;0.83;;
57401;SDS011;43226;51.110;6.998;2023-04-01T03:05:12;2.00;;;0.80;;
57401;SDS011;43226;51.110;6.998;2023-04-01T03:07:37;0.80;;;0.60;;
57401;SDS011;43226;51.110;6.998;2023-04-01T03:10:03;0.50;;;0.50;;
57401;SDS011;43226;51.110;6.998;2023-04-01T03:12:28;1.73;;;0.67;;
57401;SDS011;43226;51.110;6.998;2023-04-01T03:14:53;1.83;;;0.80;;
57401;SDS011;43226;51.110;6.998;2023-04-01T03:17:18;1.50;;;0.60;;
57401;SDS011;43226;51.110;6.998;2023-04-01T03:19:43;1.43;;;0.73;;
57401;SDS011;43226;51.110;6.998;2023-04-01T03:22:10;0.80;;;0.67;;
57401;SDS011;43226;51.110;6.998;2023-04-01T03:24:35;1.70;;;0.70;;
57401;SDS011;43226;51.110;6.998;2023-04-01T03:27:00;0.87;;;0.60;;
57401;SDS011;43226;51.110;6.998;2023-04-01T03:29:26;1.13;;;0.77;;
57401;SDS011;43226;51.110;6.998;2023-04-01T03:31:51;0.70;;;0.70;;
57401;SDS011;43226;51.110;6.998;2023-04-01T03:34:16;1.10;;;0.97;;
57401;SDS011;43226;51.110;6.998;2023-04-01T03:36:41;0.70;;;0.70;;
57401;SDS011;43226;51.110;6.998;2023-04-01T03:39:06;1.37;;;0.80;;
57401;SDS011;43226;51.110;6.998;2023-04-01T03:41:32;1.80;;;0.60;;
57401;SDS011;43226;51.110;6.998;2023-04-01T03:43:57;0.90;;;0.80;;
57401;SDS011;43226;51.110;6.998;2023-04-01T03:46:22;0.70;;;0.67;;
57401;SDS011;43226;51.110;6.998;2023-04-01T03:48:48;2.73;;;0.70;;
57401;SDS011;43226;51.110;6.998;2023-04-01T03:51:13;0.70;;;0.70;;
57401;SDS011;43226;51.110;6.998;2023-04-01T03:53:38;1.57;;;0.70;;
57401;SDS011;43226;51.110;6.998;2023-04-01T03:56:06;1.43;;;0.70;;
57401;SDS011;43226;51.110;6.998;2023-04-01T03:58:32;1.20;;;0.90;;
57401;SDS011;43226;51.110;6.998;2023-04-01T04:00:57;0.60;;;0.60;;
57401;SDS011;43226;51.110;6.998;2023-04-01T04:03:22;1.00;;;0.67;;
57401;SDS011;43226;51.110;6.998;2023-04-01T04:05:48;0.97;;;0.80;;
57401;SDS011;43226;51.110;6.998;2023-04-01T04:08:13;1.30;;;0.70;;
57401;SDS011;43226;51.110;6.998;2023-04-01T04:10:38;3.23;;;0.80;;
57401;SDS011;43226;51.110;6.998;2023-04-01T04:13:04;0.60;;;0.60;;
57401;SDS011;43226;51.110;6.998;2023-04-01T04:15:30;4.50;;;0.70;;
57401;SDS011;43226;51.110;6.998;2023-04-01T04:17:55;2.60;;;0.80;;
57401;SDS011;43226;51.110;6.998;2023-04-01T04:20:20;0.77;;;0.73;;
57401;SDS011;43226;51.110;6.998;2023-04-01T04:22:45;0.70;;;0.60;;
57401;SDS011;43226;51.110;6.998;2023-04-01T04:25:10;2.10;;;0.77;;
57401;SDS011;43226;51.110;6.998;2023-04-01T04:27:35;1.93;;;0.80;;
57401;SDS011;43226;51.110;6.998;2023-04-01T04:30:01;1.27;;;1.00;;
57401;SDS011;43226;51.110;6.998;2023-04-01T04:32:26;0.80;;;0.80;;
57401;SDS011;43226;51.110;6.998;2023-04-01T04:34:51;0.80;;;0.80;;
57401;SDS011;43226;51.110;6.998;2023-04-01T04:37:16;1.00;;;0.80;;
57401;SDS011;43226;51.110;6.998;2023-04-01T04:39:41;0.70;;;0.70;;
57401;SDS011;43226;51.110;6.998;2023-04-01T04:42:06;0.80;;;0.80;;
57401;SDS011;43226;51.110;6.998;2023-04-01T04:44:32;0.70;;;0.70;;
57401;SDS011;43226;51.110;6.998;2023-04-01T04:46:57;0.83;;;0.60;;
57401;SDS011;43226;51.110;6.998;2023-04-01T04:49:22;0.70;;;0.70;;
57401;SDS011;43226;51.110;6.998;2023-04-01T04:51:47;0.73;;;0.73;;
57401;SDS011;43226;51.110;6.998;2023-04-01T04:54:13;0.70;;;0.70;;
57401;SDS011;43226;51.110;6.998;2023-04-01T04:56:38;0.60;;;0.60;;
57401;SDS011;43226;51.110;6.998;2023-04-01T04:59:03;1.77;;;0.80;;
57401;SDS011;43226;51.110;6.998;2023-04-01T05:01:28;0.70;;;0.70;;
57401;SDS011;43226;51.110;6.998;2023-04-01T05:03:54;1.20;;;0.80;;
57401;SDS011;43226;51.110;6.998;2023-04-01T05:06:19;0.80;;;0.70;;
57401;SDS011;43226;51.110;6.998;2023-04-01T05:08:44;0.80;;;0.70;;
57401;SDS011;43226;51.110;6.998;2023-04-01T05:11:11;1.10;;;0.80;;
57401;SDS011;43226;51.110;6.998;2023-04-01T05:13:37;2.30;;;0.80;;
57401;SDS011;43226;51.110;6.998;2023-04-01T05:16:02;0.70;;;0.70;;
57401;SDS011;43226;51.110;6.998;2023-04-01T05:18:27;0.80;;;0.80;;
57401;SDS011;43226;51.110;6.998;2023-04-01T05:20:53;4.47;;;1.03;;
57401;SDS011;43226;51.110;6.998;2023-04-01T05:23:19;2.37;;;0.73;;
57401;SDS011;43226;51.110;6.998;2023-04-01T05:25:46;0.70;;;0.70;;
57401;SDS011;43226;51.110;6.998;2023-04-01T05:28:11;3.00;;;0.90;;
57401;SDS011;43226;51.110;6.998;2023-04-01T05:30:36;4.10;;;1.00;;
57401;SDS011;43226;51.110;6.998;2023-04-01T05:33:02;1.37;;;0.70;;
57401;SDS011;43226;51.110;6.998;2023-04-01T05:35:27;0.80;;;0.80;;
57401;SDS011;43226;51.110;6.998;2023-04-01T05:37:52;1.37;;;1.00;;
57401;SDS011;43226;51.110;6.998;2023-04-01T05:40:17;1.23;;;1.00;;
57401;SDS011;43226;51.110;6.998;2023-04-01T05:42:42;1.00;;;1.00;;
57401;SDS011;43226;51.110;6.998;2023-04-01T05:45:08;0.90;;;0.90;;
57401;SDS011;43226;51.110;6.998;2023-04-01T05:47:33;1.43;;;0.90;;
57401;SDS011;43226;51.110;6.998;2023-04-01T05:49:59;1.70;;;1.60;;
57401;SDS011;43226;51.110;6.998;2023-04-01T05:52:24;1.20;;;1.10;;
57401;SDS011;43226;51.110;6.998;2023-04-01T05:54:49;1.10;;;1.10;;
57401;SDS011;43226;51.110;6.998;2023-04-01T05:57:15;2.23;;;0.90;;
57401;SDS011;43226;51.110;6.998;2023-04-01T05:59:40;1.37;;;1.20;;
57401;SDS011;43226;51.110;6.998;2023-04-01T06:02:05;1.33;;;1.23;;
57401;SDS011;43226;51.110;6.998;2023-04-01T06:04:32;1.20;;;1.10;;
57401;SDS011;43226;51.110;6.998;2023-04-01T06:06:59;2.50;;;1.40;;
57401;SDS011;43226;51.110;6.998;2023-04-01T06:09:26;5.43;;;1.50;;
57401;SDS011;43226;51.110;6.998;2023-04-01T06:22:22;1.00;;;1.00;;
57401;SDS011;43226;51.110;6.998;2023-04-01T06:30:33;2.07;;;1.23;;
57401;SDS011;43226;51.110;6.998;2023-04-01T06:45:49;1.00;;;1.00;;
57401;SDS011;43226;51.110;6.998;2023-04-01T06:53:31;1.70;;;1.20;;
57401;SDS011;43226;51.110;6.998;2023-04-01T06:56:02;2.77;;;1.20;;
57401;SDS011;43226;51.110;6.998;2023-04-01T06:58:30;1.33;;;1.20;;
57401;SDS011;43226;51.110;6.998;2023-04-01T07:00:58;1.20;;;1.10;;
57401;SDS011;43226;51.110;6.998;2023-04-01T07:05:58;1.17;;;1.10;;
57401;SDS011;43226;51.110;6.998;2023-04-01T07:08:25;0.83;;;0.83;;
57401;SDS011;43226;51.110;6.998;2023-04-01T07:11:02;1.07;;;0.90;;
57401;SDS011;43226;51.110;6.998;2023-04-01T07:16:12;1.10;;;1.10;;
57401;SDS011;43226;51.110;6.998;2023-04-01T07:21:17;1.50;;;1.10;;
57401;SDS011;43226;51.110;6.998;2023-04-01T07:23:44;6.80;;;1.50;;
57401;SDS011;43226;51.110;6.998;2023-04-01T07:26:20;1.63;;;1.00;;
57401;SDS011;43226;51.110;6.998;2023-04-01T07:28:46;7.50;;;1.50;;
57401;SDS011;43226;51.110;6.998;2023-04-01T07:33:42;1.37;;;1.23;;
57401;SDS011;43226;51.110;6.998;2023-04-01T07:38:59;1.03;;;1.03;;
57401;SDS011;43226;51.110;6.998;2023-04-01T07:41:40;1.97;;;1.77;;
57401;SDS011;43226;51.110;6.998;2023-04-01T07:46:56;3.83;;;1.87;;
57401;SDS011;43226;51.110;6.998;2023-04-01T07:51:53;1.95;;;1.85;;
57401;SDS011;43226;51.110;6.998;2023-04-01T08:00:00;5.80;;;2.30;;
57401;SDS011;43226;51.110;6.998;2023-04-01T08:05:00;1.60;;;1.50;;
57401;SDS011;43226;51.110;6.998;2023-04-01T08:07:50;1.87;;;1.77;;
57401;SDS011;43226;51.110;6.998;2023-04-01T08:10:41;1.90;;;1.70;;
57401;SDS011;43226;51.110;6.998;2023-04-01T08:13:09;2.20;;;1.97;;
57401;SDS011;43226;51.110;6.998;2023-04-01T08:18:41;4.37;;;2.13;;
57401;SDS011;43226;51.110;6.998;2023-04-01T08:21:31;2.10;;;2.00;;
57401;SDS011;43226;51.110;6.998;2023-04-01T08:23:57;3.17;;;2.20;;
57401;SDS011;43226;51.110;6.998;2023-04-01T08:34:09;1.80;;;1.70;;
57401;SDS011;43226;51.110;6.998;2023-04-01T08:36:38;2.03;;;1.93;;
57401;SDS011;43226;51.110;6.998;2023-04-01T09:07:05;1.67;;;1.13;;
57401;SDS011;43226;51.110;6.998;2023-04-01T09:14:40;8.73;;;4.57;;
57401;SDS011;43226;51.110;6.998;2023-04-01T09:22:28;1.80;;;1.70;;
57401;SDS011;43226;51.110;6.998;2023-04-01T09:25:02;3.57;;;3.27;;
57401;SDS011;43226;51.110;6.998;2023-04-01T09:27:37;5.93;;;4.23;;
57401;SDS011;43226;51.110;6.998;2023-04-01T09:33:04;3.50;;;2.67;;
57401;SDS011;43226;51.110;6.998;2023-04-01T09:35:45;4.10;;;3.03;;
57401;SDS011;43226;51.110;6.998;2023-04-01T09:40:58;4.60;;;2.90;;
57401;SDS011;43226;51.110;6.998;2023-04-01T09:46:18;2.47;;;2.27;;
57401;SDS011;43226;51.110;6.998;2023-04-01T09:49:06;3.30;;;2.07;;
57401;SDS011;43226;51.110;6.998;2023-04-01T09:57:02;6.70;;;6.03;;
57401;SDS011;43226;51.110;6.998;2023-04-01T10:19:49;4.40;;;3.90;;
57401;SDS011;43226;51.110;6.998;2023-04-01T10:35:20;10.70;;;7.17;;
57401;SDS011;43226;51.110;6.998;2023-04-01T10:40:26;12.23;;;7.63;;
57401;SDS011;43226;51.110;6.998;2023-04-01T10:53:38;2.47;;;2.27;;
57401;SDS011;43226;51.110;6.998;2023-04-01T11:19:30;4.60;;;3.00;;
57401;SDS011;43226;51.110;6.998;2023-04-01T11:27:14;3.57;;;3.17;;
57401;SDS011;43226;51.110;6.998;2023-04-01T11:37:55;4.57;;;3.67;;
57401;SDS011;43226;51.110;6.998;2023-04-01T11:42:55;6.80;;;4.20;;
57401;SDS011;43226;51.110;6.998;2023-04-01T11:45:35;5.10;;;3.67;;
57401;SDS011;43226;51.110;6.998;2023-04-01T11:50:57;4.70;;;4.10;;
57401;SDS011;43226;51.110;6.998;2023-04-01T11:53:36;7.87;;;7.07;;
57401;SDS011;43226;51.110;6.998;2023-04-01T11:56:08;8.73;;;5.80;;
57401;SDS011;43226;51.110;6.998;2023-04-01T12:04:00;5.87;;;5.00;;
57401;SDS011;43226;51.110;6.998;2023-04-01T12:14:41;4.57;;;4.17;;
57401;SDS011;43226;51.110;6.998;2023-04-01T12:19:48;5.23;;;4.73;;
57401;SDS011;43226;51.110;6.998;2023-04-01T12:25:06;4.70;;;4.13;;
57401;SDS011;43226;51.110;6.998;2023-04-01T12:44:55;5.80;;;3.70;;
57401;SDS011;43226;51.110;6.998;2023-04-01T12:52:25;5.03;;;4.10;;
57401;SDS011;43226;51.110;6.998;2023-04-01T13:06:03;5.50;;;4.20;;
57401;SDS011;43226;51.110;6.998;2023-04-01T13:14:05;5.03;;;4.23;;
57401;SDS011;43226;51.110;6.998;2023-04-01T13:16:35;4.17;;;3.73;;
57401;SDS011;43226;51.110;6.998;2023-04-01T13:19:12;4.43;;;4.03;;
57401;SDS011;43226;51.110;6.998;2023-04-01T13:21:54;4.27;;;3.80;;
57401;SDS011;43226;51.110;6.998;2023-04-01T13:24:31;4.60;;;3.70;;
57401;SDS011;43226;51.110;6.998;2023-04-01T13:27:05;4.17;;;3.77;;
57401;SDS011;43226;51.110;6.998;2023-04-01T13:29:36;5.47;;;4.03;;
57401;SDS011;43226;51.110;6.998;2023-04-01T13:37:31;4.50;;;4.10;;
57401;SDS011;43226;51.110;6.998;2023-04-01T13:42:47;6.00;;;4.37;;
57401;SDS011;43226;51.110;6.998;2023-04-01T13:45:19;7.47;;;3.70;;
57401;SDS011;43226;51.110;6.998;2023-04-01T13:55:57;4.13;;;3.73;;
57401;SDS011;43226;51.110;6.998;2023-04-01T14:00:59;5.00;;;4.03;;
57401;SDS011;43226;51.110;6.998;2023-04-01T14:03:48;5.23;;;4.07;;
57401;SDS011;43226;51.110;6.998;2023-04-01T14:14:11;4.67;;;4.27;;
57401;SDS011;43226;51.110;6.998;2023-04-01T14:16:55;4.70;;;4.30;;
57401;SDS011;43226;51.110;6.998;2023-04-01T14:21:59;6.00;;;4.33;;
57401;SDS011;43226;51.110;6.998;2023-04-01T14:24:32;5.33;;;3.90;;
57401;SDS011;43226;51.110;6.998;2023-04-01T14:27:16;5.10;;;4.10;;
57401;SDS011;43226;51.110;6.998;2023-04-01T14:30:05;7.40;;;4.70;;
57401;SDS011;43226;51.110;6.998;2023-04-01T14:35:25;6.40;;;5.63;;
57401;SDS011;43226;51.110;6.998;2023-04-01T14:37:58;11.17;;;7.93;;
57401;SDS011;43226;51.110;6.998;2023-04-01T14:40:26;11.23;;;8.70;;
57401;SDS011;43226;51.110;6.998;2023-04-01T14:50:29;9.00;;;6.67;;
57401;SDS011;43226;51.110;6.998;2023-04-01T14:55:34;4.67;;;3.80;;
57401;SDS011;43226;51.110;6.998;2023-04-01T14:58:04;9.43;;;5.73;;
57401;SDS011;43226;51.110;6.998;2023-04-01T15:08:25;4.83;;;4.00;;
57401;SDS011;43226;51.110;6.998;2023-04-01T15:10:58;14.27;;;8.87;;
57401;SDS011;43226;51.110;6.998;2023-04-01T15:19:01;7.17;;;6.00;;
57401;SDS011;43226;51.110;6.998;2023-04-01T15:33:53;9.88;;;5.70;;
57401;SDS011;43226;51.110;6.998;2023-04-01T15:39:14;12.10;;;6.33;;
57401;SDS011;43226;51.110;6.998;2023-04-01T15:44:32;12.40;;;4.70;;
57401;SDS011;43226;51.110;6.998;2023-04-01T15:47:05;6.40;;;4.27;;
57401;SDS011;43226;51.110;6.998;2023-04-01T15:49:35;9.50;;;6.47;;
57401;SDS011;43226;51.110;6.998;2023-04-01T16:10:44;5.93;;;5.30;;
57401;SDS011;43226;51.110;6.998;2023-04-01T16:13:23;7.50;;;5.60;;
57401;SDS011;43226;51.110;6.998;2023-04-01T16:18:39;4.40;;;4.00;;
57401;SDS011;43226;51.110;6.998;2023-04-01T16:21:53;4.03;;;3.63;;
57401;SDS011;43226;51.110;6.998;2023-04-01T16:23:56;3.97;;;3.60;;
57401;SDS011;43226;51.110;6.998;2023-04-01T16:26:28;3.77;;;3.33;;
57401;SDS011;43226;51.110;6.998;2023-04-01T16:28:57;6.03;;;4.80;;
57401;SDS011;43226;51.110;6.998;2023-04-01T16:31:35;6.80;;;6.10;;
57401;SDS011;43226;51.110;6.998;2023-04-01T16:34:20;19.43;;;10.70;;
57401;SDS011;43226;51.110;6.998;2023-04-01T16:36:51;4.77;;;4.30;;
57401;SDS011;43226;51.110;6.998;2023-04-01T16:39:22;4.80;;;3.60;;
57401;SDS011;43226;51.110;6.998;2023-04-01T16:41:52;3.70;;;3.40;;
57401;SDS011;43226;51.110;6.998;2023-04-01T16:44:23;4.73;;;4.17;;
57401;SDS011;43226;51.110;6.998;2023-04-01T16:47:11;3.87;;;3.57;;
57401;SDS011;43226;51.110;6.998;2023-04-01T16:49:50;3.90;;;3.23;;
57401;SDS011;43226;51.110;6.998;2023-04-01T16:52:34;7.20;;;4.80;;
57401;SDS011;43226;51.110;6.998;2023-04-01T16:55:02;5.87;;;4.10;;
57401;SDS011;43226;51.110;6.998;2023-04-01T17:02:25;3.73;;;3.43;;
57401;SDS011;43226;51.110;6.998;2023-04-01T17:07:34;9.17;;;3.83;;
57401;SDS011;43226;51.110;6.998;2023-04-01T17:15:37;5.03;;;3.90;;
57401;SDS011;43226;51.110;6.998;2023-04-01T17:18:10;3.70;;;3.30;;
57401;SDS011;43226;51.110;6.998;2023-04-01T17:25:53;3.43;;;3.10;;
57401;SDS011;43226;51.110;6.998;2023-04-01T17:46:11;2.65;;;2.45;;
57401;SDS011;43226;51.110;6.998;2023-04-01T17:48:50;3.20;;;2.90;;
57401;SDS011;43226;51.110;6.998;2023-04-01T17:51:23;3.73;;;3.13;;
57401;SDS011;43226;51.110;6.998;2023-04-01T17:53:53;6.90;;;3.90;;
57401;SDS011;43226;51.110;6.998;2023-04-01T17:56:33;4.13;;;3.83;;
57401;SDS011;43226;51.110;6.998;2023-04-01T17:59:05;3.20;;;2.90;;
57401;SDS011;43226;51.110;6.998;2023-04-01T18:01:40;4.30;;;3.90;;
57401;SDS011;43226;51.110;6.998;2023-04-01T18:06:59;6.37;;;4.80;;
57401;SDS011;43226;51.110;6.998;2023-04-01T18:12:06;5.03;;;3.40;;
57401;SDS011;43226;51.110;6.998;2023-04-01T18:17:12;6.60;;;3.93;;
57401;SDS011;43226;51.110;6.998;2023-04-01T18:25:01;4.70;;;3.83;;
57401;SDS011;43226;51.110;6.998;2023-04-01T18:27:36;6.30;;;3.80;;
57401;SDS011;43226;51.110;6.998;2023-04-01T18:30:20;3.90;;;3.60;;
57401;SDS011;43226;51.110;6.998;2023-04-01T18:32:50;2.97;;;2.67;;
57401;SDS011;43226;51.110;6.998;2023-04-01T18:37:47;3.63;;;3.33;;
57401;SDS011;43226;51.110;6.998;2023-04-01T18:40:20;5.63;;;4.40;;
57401;SDS011;43226;51.110;6.998;2023-04-01T18:43:01;5.77;;;3.60;;
57401;SDS011;43226;51.110;6.998;2023-04-01T18:46:01;8.33;;;3.50;;
57401;SDS011;43226;51.110;6.998;2023-04-01T18:50:58;4.20;;;3.80;;
57401;SDS011;43226;51.110;6.998;2023-04-01T18:56:01;5.50;;;4.13;;
57401;SDS011;43226;51.110;6.998;2023-04-01T19:01:02;4.63;;;4.23;;
57401;SDS011;43226;51.110;6.998;2023-04-01T19:03:34;4.00;;;3.50;;
57401;SDS011;43226;51.110;6.998;2023-04-01T19:06:07;4.50;;;4.10;;
57401;SDS011;43226;51.110;6.998;2023-04-01T19:08:39;4.33;;;3.93;;
57401;SDS011;43226;51.110;6.998;2023-04-01T19:26:47;4.70;;;4.20;;
57401;SDS011;43226;51.110;6.998;2023-04-01T19:31:51;6.13;;;5.27;;
57401;SDS011;43226;51.110;6.998;2023-04-01T19:36:48;6.90;;;5.73;;
57401;SDS011;43226;51.110;6.998;2023-04-01T19:39:32;7.53;;;5.77;;
57401;SDS011;43226;51.110;6.998;2023-04-01T19:47:35;9.53;;;6.63;;
57401;SDS011;43226;51.110;6.998;2023-04-01T19:50:05;7.87;;;5.83;;
57401;SDS011;43226;51.110;6.998;2023-04-01T19:52:39;7.60;;;5.80;;
57401;SDS011;43226;51.110;6.998;2023-04-01T20:00:51;7.40;;;5.80;;
57401;SDS011;43226;51.110;6.998;2023-04-01T20:03:24;8.90;;;6.20;;
57401;SDS011;43226;51.110;6.998;2023-04-01T20:06:00;9.47;;;6.37;;
57401;SDS011;43226;51.110;6.998;2023-04-01T20:08:41;9.07;;;5.93;;
57401;SDS011;43226;51.110;6.998;2023-04-01T20:16:49;6.60;;;4.97;;
57401;SDS011;43226;51.110;6.998;2023-04-01T20:19:26;8.17;;;5.80;;
57401;SDS011;43226;51.110;6.998;2023-04-01T20:21:56;6.90;;;4.70;;
57401;SDS011;43226;51.110;6.998;2023-04-01T20:24:33;6.43;;;4.33;;
57401;SDS011;43226;51.110;6.998;2023-04-01T20:27:06;6.47;;;5.00;;
57401;SDS011;43226;51.110;6.998;2023-04-01T20:29:37;6.70;;;5.03;;
57401;SDS011;43226;51.110;6.998;2023-04-01T20:32:06;5.50;;;4.60;;
57401;SDS011;43226;51.110;6.998;2023-04-01T20:34:44;5.17;;;4.23;;
57401;SDS011;43226;51.110;6.998;2023-04-01T20:37:32;6.50;;;4.97;;
57401;SDS011;43226;51.110;6.998;2023-04-01T20:40:18;6.80;;;4.97;;
57401;SDS011;43226;51.110;6.998;2023-04-01T20:53:20;4.90;;;3.93;;
57401;SDS011;43226;51.110;6.998;2023-04-01T21:10:40;9.67;;;6.00;;
57401;SDS011;43226;51.110;6.998;2023-04-01T21:21:14;8.97;;;6.20;;
57401;SDS011;43226;51.110;6.998;2023-04-01T21:26:19;8.13;;;5.90;;
57401;SDS011;43226;51.110;6.998;2023-04-01T21:31:21;10.50;;;6.80;;
57401;SDS011;43226;51.110;6.998;2023-04-01T21:33:51;8.97;;;6.03;;
57401;SDS011;43226;51.110;6.998;2023-04-01T21:38:59;8.93;;;6.70;;
57401;SDS011;43226;51.110;6.998;2023-04-01T21:57:27;9.10;;;6.80;;
57401;SDS011;43226;51.110;6.998;2023-04-01T22:05:07;9.80;;;6.67;;
57401;SDS011;43226;51.110;6.998;2023-04-01T22:08:23;8.67;;;6.40;;
57401;SDS011;43226;51.110;6.998;2023-04-01T22:10:26;8.83;;;6.50;;
57401;SDS011;43226;51.110;6.998;2023-04-01T22:13:05;9.33;;;6.70;;
57401;SDS011;43226;51.110;6.998;2023-04-01T22:15:45;9.90;;;7.10;;
57401;SDS011;43226;51.110;6.998;2023-04-01T22:26:13;12.77;;;7.10;;
57401;SDS011;43226;51.110;6.998;2023-04-01T22:28:50;8.63;;;6.83;;
57401;SDS011;43226;51.110;6.998;2023-04-01T22:31:17;9.47;;;6.33;;
57401;SDS011;43226;51.110;6.998;2023-04-01T22:38:50;10.57;;;8.07;;
57401;SDS011;43226;51.110;6.998;2023-04-01T22:43:48;9.73;;;7.20;;
57401;SDS011;43226;51.110;6.998;2023-04-01T22:48:47;9.77;;;7.27;;
57401;SDS011;43226;51.110;6.998;2023-04-01T22:56:18;14.00;;;8.30;;
57401;SDS011;43226;51.110;6.998;2023-04-01T22:59:08;10.80;;;8.10;;
57401;SDS011;43226;51.110;6.998;2023-04-01T23:01:32;12.63;;;8.67;;
57401;SDS011;43226;51.110;6.998;2023-04-01T23:03:58;10.70;;;8.07;;
57401;SDS011;43226;51.110;6.998;2023-04-01T23:06:26;12.43;;;8.37;;
57401;SDS011;43226;51.110;6.998;2023-04-01T23:08:57;11.73;;;7.73;;
57401;SDS011;43226;51.110;6.998;2023-04-01T23:16:31;11.87;;;8.27;;
57401;SDS011;43226;51.110;6.998;2023-04-01T23:21:39;9.87;;;7.50;;
57401;SDS011;43226;51.110;6.998;2023-04-01T23:26:50;13.43;;;8.10;;
57401;SDS011;43226;51.110;6.998;2023-04-01T23:29:18;11.13;;;8.30;;
57401;SDS011;43226;51.110;6.998;2023-04-01T23:31:45;9.57;;;7.70;;
57401;SDS011;43226;51.110;6.998;2023-04-01T23:36:39;7.17;;;5.70;;
57401;SDS011;43226;51.110;6.998;2023-04-01T23:39:06;5.17;;;3.87;;
57401;SDS011;43226;51.110;6.998;2023-04-01T23:41:37;3.50;;;2.47;;
57401;SDS011;43226;51.110;6.998;2023-04-01T23:44:07;2.63;;;1.70;;
57401;SDS011;43226;51.110;6.998;2023-04-01T23:46:34;1.47;;;1.37;;
57401;SDS011;43226;51.110;6.998;2023-04-01T23:52:06;5.13;;;1.20;;
57401;SDS011;43226;51.110;6.998;2023-04-01T23:54:42;1.50;;;1.40;;
57401;SDS011;43226;51.110;6.998;2023-04-01T23:57:12;2.17;;;1.03;;
57401;SDS011;43226;51.110;6.998;2023-04-01T23:59:38;1.00;;;1.00;;
